메인 페이지
METAR-TAF:

METAR-TAF

공항 :

Naval Air Weapons Station China Lake (Armitage Field)

China Lake Acres, 캘리포니아, 미국

위도: 35-41-11N, 경도: 117-41-24W, 고도: 696m

현재 날씨관측

예보는 48분 전, 06:56시(UTC)에 발표되었습니다.
10kt
온도 27°C
습도 21%
기압 1006 hPa
시정: 16.1km
맑음

METAR: KNID 210656Z AUTO 17010KT 10SM CLR 27/03 A2972 RMK AO2 SLP037 T02720033 $

시각: 00:44 (07:44 UTC)

예보

예보 대상 시간: 20일 23시부터 21일 23시까지 (UTC)
10kt, 순간 최대 풍속 22kt
시정 10km 이상
맑음
전환 중
21일 02시부터 21일 04시까지 (UTC)
서남서7kt
시정 10km 이상
맑음
전환 중
21일 07시부터 21일 09시까지 (UTC)
시정: 2415m
맑음

TAF: KNID 2023/2123 19010G22KT 9999 SKC QNH2967INS BECMG 2102/2104 24007KT 9999 SKC QNH2969INS BECMG 2107/2109 VBR06KT 9999 SKC QNH2973INS LAST NO AMD AFT 2005 NEXT 2415 TN19/2112Z TX40/2123Z

4,000개 이상의 공항 관측 자료 및 예보 (METAR 및 TAF 보고).

지도상에서 검색 가능한 기상관측소가 노란 점과 빨간 점으로 표시되어 있습니다.

기상관측소 명을 보려면 표시 위로 마우스를 이동하세요.

날씨 관측과 예보를 보려면 클릭하세요.

지도 변경 : 확대하려면 엑스 표시가 있는 녹색 버튼, 축소하려면 빼기 표시가 있는 녹색 버튼, 다음 페이지의 지도를 보려면 녹색 화살표를 클릭하세요.


METAR-TAF: